createdAt,value
2023-02-06T00:03:20.535Z,96.50
2023-02-06T00:08:22.991Z,97.40
2023-02-06T00:13:25.018Z,97.00
2023-02-06T00:18:27.291Z,97.20
2023-02-06T00:23:29.247Z,96.70
2023-02-06T00:28:31.402Z,98.10
2023-02-06T00:33:33.638Z,96.60
2023-02-06T00:38:38.530Z,97.60
2023-02-06T00:43:42.031Z,98.10
2023-02-06T00:48:44.135Z,97.80
2023-02-06T00:53:46.608Z,97.80
2023-02-06T00:58:48.876Z,97.00
2023-02-06T01:03:51.101Z,97.10
2023-02-06T01:08:53.360Z,96.30
2023-02-06T01:13:55.630Z,96.80
2023-02-06T01:18:57.828Z,96.30
2023-02-06T01:23:59.880Z,97.10
2023-02-06T01:29:02.918Z,96.90
2023-02-06T01:34:05.938Z,97.50
2023-02-06T01:39:08.371Z,96.90
2023-02-06T01:44:19.857Z,99.60
2023-02-06T01:49:34.534Z,96.60
2023-02-06T01:54:36.875Z,97.90
2023-02-06T01:59:44.201Z,98.90
2023-02-06T02:04:46.927Z,97.70
2023-02-06T02:09:49.282Z,97.10
2023-02-06T02:14:54.496Z,98.00
2023-02-06T02:20:24.023Z,96.80
2023-02-06T02:25:57.041Z,98.20
2023-02-06T02:31:46.863Z,97.30
2023-02-06T02:37:07.360Z,96.00
2023-02-06T02:42:28.555Z,97.70
2023-02-06T02:47:43.663Z,99.40
2023-02-06T02:52:46.701Z,96.50
2023-02-06T02:57:56.292Z,98.20
2023-02-06T03:02:59.340Z,96.80
2023-02-06T03:08:34.468Z,99.00
2023-02-06T03:13:48.843Z,97.30
2023-02-06T03:19:11.034Z,97.10
2023-02-06T03:24:31.968Z,99.10
2023-02-06T03:29:37.423Z,97.80
2023-02-06T03:35:08.445Z,97.20
2023-02-06T03:40:11.589Z,98.70
2023-02-06T03:45:26.470Z,98.30
2023-02-06T03:50:29.150Z,98.60
2023-02-06T03:55:31.476Z,98.00
2023-02-06T04:00:35.794Z,98.20
2023-02-06T04:05:39.271Z,97.20
2023-02-06T04:10:41.291Z,95.40
2023-02-06T04:15:43.501Z,96.20
2023-02-06T04:20:45.785Z,98.40
2023-02-06T04:25:48.338Z,95.00
2023-02-06T04:30:50.567Z,98.20
2023-02-06T04:35:52.667Z,95.80
2023-02-06T04:40:54.651Z,97.80
2023-02-06T04:45:56.693Z,97.70
2023-02-06T04:50:58.864Z,97.60
2023-02-06T04:56:07.327Z,98.40
2023-02-06T05:01:09.484Z,97.10
2023-02-06T05:06:11.919Z,99.00
2023-02-06T05:11:13.914Z,98.70
2023-02-06T05:16:17.691Z,98.60
2023-02-06T05:21:20.010Z,97.20
2023-02-06T05:26:22.109Z,96.90
2023-02-06T05:31:24.377Z,99.20
2023-02-06T05:36:26.514Z,96.00
2023-02-06T05:41:28.518Z,96.30
2023-02-06T05:46:30.776Z,96.90
2023-02-06T05:51:32.803Z,94.50
2023-02-06T05:56:34.827Z,96.30
2023-02-06T06:01:36.978Z,95.50
2023-02-06T06:06:39.042Z,98.20
2023-02-06T06:11:41.076Z,98.40
2023-02-06T06:16:43.230Z,95.20
2023-02-06T06:21:45.482Z,98.00
2023-02-06T06:26:47.959Z,95.80
2023-02-06T06:31:50.328Z,97.50
2023-02-06T06:36:52.461Z,96.20
2023-02-06T06:41:54.607Z,96.40
2023-02-06T06:46:56.746Z,96.10
2023-02-06T06:51:58.968Z,95.40
2023-02-06T06:57:00.998Z,96.50
2023-02-06T07:02:03.218Z,95.40
2023-02-06T07:07:05.374Z,97.70
2023-02-06T07:12:07.702Z,94.60
2023-02-06T07:17:09.735Z,95.10
2023-02-06T07:22:11.798Z,94.50
2023-02-06T07:27:14.042Z,98.20
2023-02-06T07:32:16.664Z,97.50
2023-02-06T07:37:18.943Z,94.80
2023-02-06T07:42:20.954Z,94.50
2023-02-06T07:47:30.079Z,93.80
2023-02-06T07:52:32.240Z,96.00
2023-02-06T07:57:34.298Z,98.90
2023-02-06T08:02:36.317Z,97.40
2023-02-06T08:07:38.363Z,94.80
2023-02-06T08:12:40.454Z,92.00
2023-02-06T08:17:42.890Z,91.50
2023-02-06T08:22:44.982Z,91.30
2023-02-06T08:27:47.533Z,90.00
2023-02-06T08:32:50.133Z,86.00
2023-02-06T08:37:52.238Z,90.90
2023-02-06T08:42:56.504Z,94.40
2023-02-06T08:47:58.860Z,95.40
2023-02-06T08:53:00.892Z,86.70
2023-02-06T08:58:04.027Z,81.70
2023-02-06T09:03:06.222Z,93.60
2023-02-06T09:08:08.951Z,87.10
2023-02-06T09:13:11.217Z,90.00
2023-02-06T09:18:13.209Z,92.80
2023-02-06T09:23:19.184Z,93.10
2023-02-06T09:28:21.420Z,92.60
2023-02-06T09:33:24.176Z,92.60
2023-02-06T09:38:26.168Z,89.50
2023-02-06T09:43:32.175Z,81.90
2023-02-06T09:48:39.512Z,88.40
2023-02-06T09:54:12.881Z,90.20
2023-02-06T09:59:32.908Z,82.90
2023-02-06T10:05:36.798Z,88.90
2023-02-06T10:10:53.455Z,82.30
2023-02-06T10:16:07.345Z,77.40
2023-02-06T10:21:31.563Z,89.40
2023-02-06T10:26:38.928Z,90.80
2023-02-06T10:32:01.880Z,91.30
2023-02-06T10:37:29.754Z,89.90
2023-02-06T10:42:52.790Z,77.90
2023-02-06T10:48:09.599Z,80.60
2023-02-06T10:53:35.468Z,84.10
2023-02-06T10:58:46.244Z,72.10
2023-02-06T11:04:04.017Z,79.70
2023-02-06T11:09:06.386Z,81.50
2023-02-06T11:14:35.203Z,72.90
2023-02-06T11:19:46.767Z,77.30
2023-02-06T11:25:01.580Z,88.50
2023-02-06T11:30:27.485Z,85.20
2023-02-06T11:35:54.198Z,74.60
2023-02-06T11:41:01.348Z,76.60
2023-02-06T11:46:42.238Z,69.50
2023-02-06T11:52:03.730Z,75.40
2023-02-06T11:57:21.105Z,72.50
2023-02-06T12:02:31.628Z,73.60
2023-02-06T12:08:10.704Z,76.00
2023-02-06T12:13:30.946Z,78.90
2023-02-06T12:18:42.360Z,81.60
2023-02-06T12:23:52.955Z,76.90
2023-02-06T12:29:04.823Z,83.10
2023-02-06T12:34:15.556Z,82.90
2023-02-06T12:39:22.990Z,79.50
2023-02-06T12:44:57.677Z,81.70
2023-02-06T12:50:44.354Z,79.40
2023-02-06T12:56:00.873Z,80.30
2023-02-06T13:01:33.003Z,85.60
2023-02-06T13:07:05.069Z,81.00
2023-02-06T13:12:19.866Z,78.90
2023-02-06T13:17:38.865Z,78.80
2023-02-06T13:22:51.101Z,85.20
2023-02-06T13:27:55.711Z,79.10
2023-02-06T13:33:20.911Z,78.10
2023-02-06T13:38:22.868Z,77.60
2023-02-06T13:43:30.888Z,79.20
2023-02-06T13:49:15.219Z,79.10
2023-02-06T13:54:38.512Z,76.20
2023-02-06T14:00:00.795Z,72.60
2023-02-06T14:05:06.936Z,76.60
2023-02-06T14:11:00.946Z,71.50
2023-02-06T14:16:45.002Z,72.00
2023-02-06T14:22:36.750Z,78.20
2023-02-06T14:28:33.096Z,77.90
2023-02-06T14:34:00.280Z,72.20
2023-02-06T14:39:40.822Z,76.90
2023-02-06T14:44:50.692Z,78.70
2023-02-06T14:49:56.714Z,80.00
2023-02-06T14:54:59.081Z,79.30
2023-02-06T15:00:17.642Z,80.10
2023-02-06T15:05:26.551Z,77.10
2023-02-06T15:10:36.718Z,79.50
2023-02-06T15:15:39.100Z,77.10
2023-02-06T15:20:45.334Z,78.20
2023-02-06T15:26:05.672Z,77.00
2023-02-06T15:31:21.570Z,80.10
2023-02-06T15:36:38.378Z,77.20
2023-02-06T15:41:44.546Z,83.30
2023-02-06T15:46:49.296Z,83.40
2023-02-06T15:51:55.146Z,77.70
2023-02-06T15:57:17.322Z,80.20
2023-02-06T16:02:31.043Z,80.70
2023-02-06T16:07:36.178Z,82.00
2023-02-06T16:12:42.593Z,84.90
2023-02-06T16:17:44.634Z,81.60
2023-02-06T16:22:47.178Z,79.50
2023-02-06T16:27:51.435Z,78.30
2023-02-06T16:32:55.523Z,78.00
2023-02-06T16:37:57.737Z,78.30
2023-02-06T16:43:01.945Z,81.50
2023-02-06T16:48:10.072Z,75.90
